createdAt,value
2019-02-19T00:00:40.798Z,96430.23
2019-02-19T00:03:07.505Z,96426.92
2019-02-19T00:05:34.254Z,96432.53
2019-02-19T00:08:00.972Z,96423.47
2019-02-19T00:10:27.682Z,96427.91
2019-02-19T00:12:54.368Z,96433.34
2019-02-19T00:15:20.975Z,96434.83
2019-02-19T00:17:47.586Z,96434.00
2019-02-19T00:20:14.199Z,96430.05
2019-02-19T00:22:40.891Z,96427.25
2019-02-19T00:25:07.507Z,96432.85
2019-02-19T00:27:34.115Z,96428.90
2019-02-19T00:30:00.823Z,96428.90
2019-02-19T00:32:27.525Z,96425.12
2019-02-19T00:34:54.145Z,96430.39
2019-02-19T00:37:20.767Z,96431.22
2019-02-19T00:39:47.377Z,96427.75
2019-02-19T00:42:13.994Z,96423.30
2019-02-19T00:44:40.603Z,96425.45
2019-02-19T00:47:07.215Z,96421.66
2019-02-19T00:49:33.818Z,96428.92
2019-02-19T00:52:00.424Z,96433.70
2019-02-19T00:54:27.146Z,96431.23
2019-02-19T00:56:53.754Z,96437.33
2019-02-19T00:59:20.372Z,96435.52
2019-02-19T01:01:46.972Z,96432.55
2019-02-19T01:04:13.597Z,96435.84
2019-02-19T01:06:40.201Z,96437.48
2019-02-19T01:09:06.964Z,96439.30
2019-02-19T01:11:33.593Z,96441.27
2019-02-19T01:14:00.318Z,96442.25
2019-02-19T01:16:26.938Z,96435.98
2019-02-19T01:18:53.598Z,96440.75
2019-02-19T01:21:20.288Z,96439.45
2019-02-19T01:23:46.907Z,96434.32
2019-02-19T01:26:13.527Z,96428.88
2019-02-19T01:28:40.150Z,96433.98
2019-02-19T01:31:06.852Z,96432.84
2019-02-19T01:33:33.474Z,96434.00
2019-02-19T01:36:00.184Z,96438.12
2019-02-19T01:38:26.792Z,96444.38
2019-02-19T01:40:53.567Z,96455.25
2019-02-19T01:43:20.289Z,96456.23
2019-02-19T01:45:46.889Z,96461.83
2019-02-19T01:48:13.494Z,96455.57
2019-02-19T01:50:40.118Z,96462.83
2019-02-19T01:53:06.825Z,96466.30
2019-02-19T01:55:33.435Z,96455.75
2019-02-19T01:58:00.048Z,96465.47
2019-02-19T02:00:26.658Z,96461.34
2019-02-19T02:02:53.260Z,96465.78
2019-02-19T02:05:19.979Z,96462.14
2019-02-19T02:07:46.593Z,96467.41
2019-02-19T02:10:13.320Z,96459.33
2019-02-19T02:12:39.929Z,96462.80
2019-02-19T02:15:06.587Z,96463.29
2019-02-19T02:17:33.295Z,96462.16
2019-02-19T02:19:59.907Z,96469.73
2019-02-19T02:22:26.601Z,96462.16
2019-02-19T02:24:53.218Z,96455.71
2019-02-19T02:27:19.923Z,96458.19
2019-02-19T02:29:46.550Z,96463.95
2019-02-19T02:32:13.275Z,96461.98
2019-02-19T02:34:39.979Z,96458.52
2019-02-19T02:37:06.606Z,96461.34
2019-02-19T02:39:33.211Z,96463.48
2019-02-19T02:41:59.941Z,96466.30
2019-02-19T02:44:26.557Z,96462.83
2019-02-19T02:46:53.279Z,96469.59
2019-02-19T02:49:19.872Z,96465.15
2019-02-19T02:51:46.525Z,96475.19
2019-02-19T02:54:13.234Z,96474.02
2019-02-19T02:56:39.837Z,96476.34
2019-02-19T02:59:06.444Z,96475.22
2019-02-19T03:01:33.051Z,96476.36
2019-02-19T03:03:59.761Z,96474.56
2019-02-19T03:06:44.611Z,96467.48
2019-02-19T03:09:11.218Z,96468.80
2019-02-19T03:11:37.834Z,96473.25
2019-02-19T03:14:04.569Z,96473.74
2019-02-19T03:16:31.265Z,96478.34
2019-02-19T03:18:57.886Z,96474.39
2019-02-19T03:21:24.503Z,96482.30
2019-02-19T03:23:51.124Z,96483.29
2019-02-19T03:26:17.837Z,96487.73
2019-02-19T03:28:44.556Z,96482.95
2019-02-19T03:31:11.174Z,96483.45
2019-02-19T03:33:37.886Z,96484.27
2019-02-19T03:36:04.492Z,96487.24
2019-02-19T03:38:31.116Z,96489.88
2019-02-19T03:40:57.819Z,96483.78
2019-02-19T03:43:24.434Z,96490.20
2019-02-19T03:45:51.153Z,96494.31
2019-02-19T03:48:17.879Z,96495.82
2019-02-19T03:50:44.494Z,96491.53
2019-02-19T03:53:11.097Z,96497.63
2019-02-19T03:55:37.802Z,96496.80
2019-02-19T03:58:04.420Z,96503.40
2019-02-19T04:00:31.059Z,96505.70
2019-02-19T04:02:57.766Z,96511.95
2019-02-19T04:05:24.519Z,96507.17
2019-02-19T04:07:51.124Z,96504.54
2019-02-19T04:10:17.748Z,96507.67
2019-02-19T04:12:44.366Z,96506.84
2019-02-19T04:15:11.116Z,96512.94
2019-02-19T04:17:37.884Z,96505.36
2019-02-19T04:20:04.732Z,96505.36
2019-02-19T04:22:31.450Z,96514.26
2019-02-19T04:24:58.057Z,96515.40
2019-02-19T04:27:24.684Z,96514.89
2019-02-19T04:29:51.297Z,96510.42
2019-02-19T04:32:17.911Z,96517.66
2019-02-19T04:34:44.615Z,96519.80
2019-02-19T04:37:11.243Z,96517.84
2019-02-19T04:39:37.881Z,96527.40
2019-02-19T04:42:04.593Z,96521.63
2019-02-19T04:44:31.216Z,96525.77
2019-02-19T04:46:57.938Z,96524.78
2019-02-19T04:49:24.550Z,96521.99
2019-02-19T04:51:51.275Z,96522.17
2019-02-19T04:54:17.879Z,96519.38
2019-02-19T04:56:44.488Z,96521.19
2019-02-19T04:59:11.100Z,96515.91
2019-02-19T05:01:37.792Z,96516.73
2019-02-19T05:04:04.388Z,96512.45
2019-02-19T05:06:30.995Z,96518.55
2019-02-19T05:08:57.596Z,96520.20
2019-02-19T05:11:24.198Z,96526.30
2019-02-19T05:13:50.804Z,96516.25
2019-02-19T05:16:17.389Z,96523.00
2019-02-19T05:18:43.999Z,96520.18
2019-02-19T05:21:10.593Z,96520.16
2019-02-19T05:23:37.212Z,96523.44
2019-02-19T05:26:03.814Z,96521.79
2019-02-19T05:28:30.433Z,96523.94
2019-02-19T05:30:57.033Z,96531.17
2019-02-19T05:33:23.668Z,96530.53
2019-02-19T05:35:50.343Z,96528.22
2019-02-19T05:38:16.973Z,96529.55
2019-02-19T05:40:43.566Z,96529.39
2019-02-19T05:43:10.258Z,96537.79
2019-02-19T05:45:36.841Z,96534.81
2019-02-19T05:48:05.265Z,96533.16
2019-02-19T05:50:31.928Z,96545.02
2019-02-19T05:52:58.526Z,96544.66
2019-02-19T05:55:25.227Z,96544.19
2019-02-19T05:57:51.836Z,96554.88
2019-02-19T06:00:18.548Z,96552.89
2019-02-19T06:02:45.128Z,96564.91
2019-02-19T06:05:11.742Z,96560.47
2019-02-19T06:07:38.446Z,96560.34
2019-02-19T06:10:05.533Z,96564.82
2019-02-19T06:12:32.232Z,96566.52
2019-02-19T06:14:58.852Z,96566.16
2019-02-19T06:17:25.438Z,96567.81
2019-02-19T06:19:52.038Z,96566.74
2019-02-19T06:22:18.630Z,96576.86
2019-02-19T06:24:45.690Z,96579.41
2019-02-19T06:27:12.299Z,96577.83
2019-02-19T06:29:38.984Z,96574.92
2019-02-19T06:32:05.570Z,96582.97
2019-02-19T06:34:32.184Z,96581.70
2019-02-19T06:36:58.790Z,96597.69
2019-02-19T06:39:25.498Z,96599.36
2019-02-19T06:41:52.220Z,96607.46
2019-02-19T06:44:18.910Z,96607.50
2019-02-19T06:46:45.608Z,96616.48
2019-02-19T06:49:12.237Z,96618.50
2019-02-19T06:51:38.951Z,96613.24
2019-02-19T06:54:05.559Z,96616.37
2019-02-19T06:56:32.158Z,96615.55
2019-02-19T06:58:58.844Z,96620.33
2019-02-19T07:01:54.072Z,96625.97
2019-02-19T07:04:30.044Z,96628.28
2019-02-19T07:06:56.625Z,96630.73
2019-02-19T07:09:23.233Z,96627.79
2019-02-19T07:11:49.829Z,96627.61
2019-02-19T07:14:16.438Z,96631.91
2019-02-19T07:16:43.160Z,96632.58
2019-02-19T07:19:09.865Z,96624.30
2019-02-19T07:21:36.477Z,96627.94
2019-02-19T07:24:04.701Z,96628.28
2019-02-19T07:26:31.466Z,96629.09
2019-02-19T07:28:58.111Z,96627.61
2019-02-19T07:31:24.815Z,96627.28
2019-02-19T07:33:51.413Z,96632.87
2019-02-19T07:36:18.020Z,96624.92
2019-02-19T07:38:44.613Z,96635.33
2019-02-19T07:41:11.235Z,96631.48
2019-02-19T07:43:37.829Z,96631.48
2019-02-19T07:46:04.554Z,96630.94
2019-02-19T07:48:31.159Z,96629.55
2019-02-19T07:50:57.769Z,96633.44
2019-02-19T07:53:24.357Z,96639.31
2019-02-19T07:55:50.978Z,96644.52
2019-02-19T07:58:17.580Z,96638.49
2019-02-19T08:00:44.188Z,96635.77
2019-02-19T08:03:10.804Z,96637.73
2019-02-19T08:05:37.516Z,96637.53
2019-02-19T08:08:04.219Z,96635.98
2019-02-19T08:10:30.813Z,96642.88
2019-02-19T08:12:57.404Z,96641.95
2019-02-19T08:15:24.004Z,96640.90
2019-02-19T08:17:50.607Z,96635.66
2019-02-19T08:20:17.240Z,96631.55
2019-02-19T08:22:43.850Z,96634.28
2019-02-19T08:25:10.472Z,96624.86
2019-02-19T08:27:37.144Z,96628.02
2019-02-19T08:30:03.876Z,96629.77
2019-02-19T08:32:30.470Z,96628.55
2019-02-19T08:34:57.156Z,96636.08
2019-02-19T08:37:23.773Z,96634.17
2019-02-19T08:39:50.468Z,96640.69
2019-02-19T08:42:17.052Z,96632.13
2019-02-19T08:44:43.636Z,96634.11
2019-02-19T08:47:10.222Z,96630.78
2019-02-19T08:49:36.841Z,96625.50
2019-02-19T08:52:03.435Z,96634.11
2019-02-19T08:54:30.028Z,96634.70
2019-02-19T08:56:56.633Z,96629.14
2019-02-19T08:59:23.242Z,96634.31
2019-02-19T09:01:49.873Z,96631.36
2019-02-19T09:04:16.484Z,96632.36
2019-02-19T09:06:43.082Z,96628.09
2019-02-19T09:09:09.660Z,96623.38
2019-02-19T09:11:39.144Z,96627.55
2019-02-19T09:14:05.774Z,96616.23
2019-02-19T09:16:32.495Z,96623.34
2019-02-19T09:18:59.213Z,96620.48
2019-02-19T09:21:25.832Z,96621.09
2019-02-19T09:23:52.433Z,96619.06
2019-02-19T09:26:19.029Z,96622.95
2019-02-19T09:28:45.747Z,96613.38
2019-02-19T09:31:12.339Z,96617.06
2019-02-19T09:33:38.968Z,96613.40
2019-02-19T09:36:05.581Z,96605.82
2019-02-19T09:38:32.193Z,96611.59
2019-02-19T09:40:58.781Z,96608.39
2019-02-19T09:43:25.477Z,96610.62
2019-02-19T09:45:52.074Z,96610.41
2019-02-19T09:48:18.689Z,96610.17
2019-02-19T09:50:45.385Z,96612.22
2019-02-19T09:53:12.014Z,96611.86
2019-02-19T09:55:38.711Z,96608.09
2019-02-19T09:58:05.437Z,96614.14
2019-02-19T10:00:32.110Z,96610.88
2019-02-19T10:02:58.721Z,96611.77
2019-02-19T10:05:25.411Z,96604.27
2019-02-19T10:07:52.023Z,96605.80
2019-02-19T10:10:18.631Z,96602.39
2019-02-19T10:12:45.242Z,96596.08
2019-02-19T10:15:11.845Z,96603.64
2019-02-19T10:17:38.549Z,96602.45
2019-02-19T10:20:05.369Z,96599.29
2019-02-19T10:22:31.966Z,96597.44
2019-02-19T10:24:58.658Z,96600.66
2019-02-19T10:27:25.268Z,96592.53
2019-02-19T10:29:51.873Z,96588.77
2019-02-19T10:32:18.586Z,96591.12
2019-02-19T10:34:45.192Z,96588.92
2019-02-19T10:37:11.796Z,96587.27
2019-02-19T10:39:38.392Z,96582.05
2019-02-19T10:42:05.028Z,96575.91
2019-02-19T10:44:31.648Z,96574.53
2019-02-19T10:46:58.380Z,96571.06
2019-02-19T10:49:25.099Z,96563.69
2019-02-19T10:51:51.766Z,96560.08
2019-02-19T10:54:18.352Z,96562.39
2019-02-19T10:56:44.960Z,96551.30
2019-02-19T10:59:11.586Z,96548.17
2019-02-19T11:01:38.195Z,96551.81
2019-02-19T11:04:04.814Z,96548.58
2019-02-19T11:06:31.410Z,96548.39
2019-02-19T11:08:58.204Z,96537.64
2019-02-19T11:11:24.873Z,96527.42
2019-02-19T11:13:51.546Z,96530.16
2019-02-19T11:16:18.168Z,96526.45
2019-02-19T11:18:44.861Z,96523.56
2019-02-19T11:21:19.326Z,96526.19
2019-02-19T11:23:40.012Z,96512.78
2019-02-19T11:26:06.618Z,96512.69
2019-02-19T11:28:33.373Z,96510.81
2019-02-19T11:30:59.979Z,96510.68
2019-02-19T11:33:26.579Z,96512.78
2019-02-19T11:35:54.816Z,96510.17
2019-02-19T11:38:21.659Z,96505.58
2019-02-19T11:40:48.262Z,96509.33
2019-02-19T11:43:14.875Z,96494.86
2019-02-19T11:45:41.468Z,96498.73
2019-02-19T11:48:08.108Z,96499.08
2019-02-19T11:50:34.717Z,96501.50
2019-02-19T11:53:01.313Z,96499.36
2019-02-19T11:55:27.927Z,96495.03
2019-02-19T11:57:54.531Z,96497.95
2019-02-19T12:00:25.210Z,96499.55
2019-02-19T12:02:51.793Z,96497.38
2019-02-19T12:05:18.422Z,96510.88
2019-02-19T12:07:45.121Z,96493.36
2019-02-19T12:10:12.164Z,96498.30
2019-02-19T12:12:38.833Z,96496.98
2019-02-19T12:15:05.540Z,96491.83
2019-02-19T12:17:32.235Z,96489.91
2019-02-19T12:19:58.841Z,96493.39
2019-02-19T12:22:25.470Z,96485.10
2019-02-19T12:24:52.083Z,96487.86
2019-02-19T12:27:18.693Z,96492.45
2019-02-19T12:29:45.311Z,96492.39
2019-02-19T12:32:11.906Z,96485.98
2019-02-19T12:34:38.518Z,96492.20
2019-02-19T12:37:05.200Z,96484.66
2019-02-19T12:39:31.806Z,96481.20
2019-02-19T12:41:58.504Z,96483.27
2019-02-19T12:44:25.125Z,96474.14
2019-02-19T12:46:51.724Z,96474.11
2019-02-19T12:49:18.336Z,96476.78
2019-02-19T12:51:45.076Z,96483.06
2019-02-19T12:54:11.704Z,96475.80
2019-02-19T12:56:38.397Z,96470.37
2019-02-19T12:59:05.024Z,96484.02
2019-02-19T13:01:31.680Z,96474.56
2019-02-19T13:03:58.379Z,96476.95
2019-02-19T13:06:25.089Z,96476.95
2019-02-19T13:08:51.692Z,96473.41
2019-02-19T13:11:18.329Z,96477.27
2019-02-19T13:13:45.034Z,96467.02
2019-02-19T13:16:11.656Z,96473.66
2019-02-19T13:18:38.302Z,96465.42
2019-02-19T13:21:04.906Z,96465.25
2019-02-19T13:23:31.515Z,96470.74
2019-02-19T13:25:58.264Z,96467.22
2019-02-19T13:28:24.956Z,96459.30
2019-02-19T13:30:51.566Z,96468.67
2019-02-19T13:33:23.312Z,96459.60
2019-02-19T13:35:50.723Z,96462.54
2019-02-19T13:38:17.452Z,96456.39
2019-02-19T13:40:44.048Z,96461.82
2019-02-19T13:43:10.659Z,96454.53
2019-02-19T13:45:37.268Z,96451.56
2019-02-19T13:48:05.817Z,96448.59
2019-02-19T13:50:32.449Z,96443.92
2019-02-19T13:53:17.083Z,96448.79
2019-02-19T13:55:47.021Z,96454.15
2019-02-19T13:58:13.701Z,96454.63
2019-02-19T14:00:41.130Z,96446.60
2019-02-19T14:03:07.728Z,96443.34
2019-02-19T14:05:34.437Z,96443.36
2019-02-19T14:08:01.128Z,96429.86
2019-02-19T14:10:27.763Z,96443.42
2019-02-19T14:12:54.362Z,96439.94
2019-02-19T14:15:45.062Z,96441.88
2019-02-19T14:18:12.723Z,96437.92
2019-02-19T14:20:58.840Z,96441.01
2019-02-19T14:24:00.205Z,96435.18
2019-02-19T14:26:44.923Z,96433.13
2019-02-19T14:29:37.103Z,96435.22
2019-02-19T14:32:28.991Z,96430.48
2019-02-19T14:35:33.345Z,96431.42
2019-02-19T14:38:25.273Z,96430.45
2019-02-19T14:41:07.961Z,96431.65
2019-02-19T14:44:03.083Z,96432.52
2019-02-19T14:46:48.151Z,96424.14
2019-02-19T14:49:37.318Z,96425.53
2019-02-19T14:52:17.766Z,96433.93
2019-02-19T14:55:02.465Z,96431.45
2019-02-19T14:57:54.640Z,96429.52
2019-02-19T15:00:43.530Z,96423.79
2019-02-19T15:03:47.937Z,96424.85
2019-02-19T15:06:29.606Z,96423.50
2019-02-19T15:09:30.777Z,96431.50
2019-02-19T15:12:25.892Z,96429.95
2019-02-19T15:15:20.618Z,96429.03
2019-02-19T15:18:05.477Z,96432.78
2019-02-19T15:20:43.557Z,96436.50
2019-02-19T15:23:28.242Z,96434.65
2019-02-19T15:26:13.220Z,96433.81
2019-02-19T15:28:58.038Z,96431.84
2019-02-19T15:31:42.223Z,96437.55
2019-02-19T15:34:28.349Z,96439.25
2019-02-19T15:37:07.849Z,96432.08
2019-02-19T15:39:52.831Z,96433.78
2019-02-19T15:42:42.000Z,96435.72
2019-02-19T15:45:26.715Z,96428.30
2019-02-19T15:48:12.869Z,96428.42
2019-02-19T15:50:57.518Z,96432.23
2019-02-19T15:53:43.762Z,96430.59
2019-02-19T15:56:41.958Z,96430.06
2019-02-19T15:59:19.859Z,96430.81
2019-02-19T16:02:06.002Z,96421.70
2019-02-19T16:04:51.929Z,96428.67
2019-02-19T16:07:38.046Z,96426.06
2019-02-19T16:10:24.716Z,96427.09
2019-02-19T16:13:07.749Z,96424.69
2019-02-19T16:15:57.053Z,96426.17
2019-02-19T16:18:52.281Z,96433.20
2019-02-19T16:21:37.141Z,96432.75
2019-02-19T16:24:25.953Z,96430.66
2019-02-19T16:27:12.089Z,96432.32
2019-02-19T16:29:58.226Z,96434.55
2019-02-19T16:32:35.449Z,96436.47
2019-02-19T16:35:24.655Z,96436.34
2019-02-19T16:38:20.105Z,96436.92
2019-02-19T16:41:14.375Z,96431.19
2019-02-19T16:44:09.794Z,96435.91
2019-02-19T16:46:54.873Z,96442.22
2019-02-19T16:49:47.364Z,96435.88
2019-02-19T16:52:36.774Z,96441.39
2019-02-19T16:55:16.011Z,96433.78
2019-02-19T16:57:47.811Z,96445.56
2019-02-19T17:00:22.851Z,96439.37
2019-02-19T17:03:09.075Z,96444.39
2019-02-19T17:06:01.104Z,96452.77
2019-02-19T17:08:52.117Z,96455.50
2019-02-19T17:11:45.374Z,96456.75
2019-02-19T17:14:34.388Z,96457.56
2019-02-19T17:17:23.446Z,96464.16
2019-02-19T17:20:26.438Z,96469.59
2019-02-19T17:23:06.364Z,96467.95
2019-02-19T17:26:01.966Z,96477.43
2019-02-19T17:28:48.200Z,96474.98
2019-02-19T17:31:30.684Z,96479.16
2019-02-19T17:34:16.050Z,96479.90
2019-02-19T17:36:53.345Z,96477.38
2019-02-19T17:39:30.855Z,96483.97
2019-02-19T17:42:23.365Z,96480.49
2019-02-19T17:45:09.621Z,96489.02
2019-02-19T17:47:54.545Z,96490.36
2019-02-19T17:50:58.838Z,96483.27
2019-02-19T17:53:54.060Z,96485.02
2019-02-19T17:56:43.350Z,96488.30
2019-02-19T17:59:29.475Z,96492.52
2019-02-19T18:02:10.030Z,96491.89
2019-02-19T18:05:02.507Z,96492.55
2019-02-19T18:08:07.113Z,96494.70
2019-02-19T18:10:53.250Z,96496.76
2019-02-19T18:13:59.824Z,96498.67
2019-02-19T18:16:49.276Z,96500.31
2019-02-19T18:19:16.125Z,96496.41
2019-02-19T18:21:42.924Z,96498.98
2019-02-19T18:24:09.771Z,96503.74
2019-02-19T18:26:36.767Z,96506.55
2019-02-19T18:29:03.564Z,96498.32
2019-02-19T18:31:32.047Z,96497.22
2019-02-19T18:33:58.860Z,96498.34
2019-02-19T18:36:25.667Z,96496.39
2019-02-19T18:38:52.475Z,96499.77
2019-02-19T18:41:19.281Z,96503.67
2019-02-19T18:43:47.162Z,96494.42
2019-02-19T18:46:13.964Z,96499.89
2019-02-19T18:48:40.723Z,96497.63
2019-02-19T18:51:07.543Z,96510.14
2019-02-19T18:53:34.321Z,96509.42
2019-02-19T18:56:01.149Z,96511.58
2019-02-19T18:58:28.241Z,96514.67
2019-02-19T19:00:55.239Z,96517.10
2019-02-19T19:03:22.079Z,96517.10
2019-02-19T19:05:48.912Z,96528.09
2019-02-19T19:08:16.169Z,96530.45
2019-02-19T19:10:43.144Z,96523.28
2019-02-19T19:13:10.003Z,96526.64
2019-02-19T19:15:36.876Z,96535.47
2019-02-19T19:18:04.618Z,96529.61
2019-02-19T19:20:31.899Z,96532.91
2019-02-19T19:22:58.973Z,96530.52
2019-02-19T19:25:26.319Z,96536.61
2019-02-19T19:27:55.435Z,96534.86
2019-02-19T19:30:22.840Z,96538.55
2019-02-19T19:32:51.053Z,96543.38
2019-02-19T19:35:17.953Z,96538.14
2019-02-19T19:37:44.811Z,96546.77
2019-02-19T19:40:12.031Z,96542.58
2019-02-19T19:42:39.368Z,96545.66
2019-02-19T19:45:06.368Z,96541.95
2019-02-19T19:47:33.408Z,96547.90
2019-02-19T19:50:03.412Z,96550.16
2019-02-19T19:52:32.762Z,96550.47
2019-02-19T19:55:00.767Z,96554.77
2019-02-19T19:57:27.960Z,96567.39
2019-02-19T19:59:56.707Z,96566.58
2019-02-19T20:02:23.780Z,96577.80
2019-02-19T20:04:50.891Z,96573.75
2019-02-19T20:07:17.905Z,96578.63
2019-02-19T20:09:45.227Z,96577.96
2019-02-19T20:12:13.609Z,96591.80
2019-02-19T20:14:41.051Z,96596.20
2019-02-19T20:17:10.182Z,96596.66
2019-02-19T20:19:39.563Z,96591.27
2019-02-19T20:22:10.470Z,96612.48
2019-02-19T20:24:38.052Z,96611.26
2019-02-19T20:27:06.494Z,96611.99
2019-02-19T20:29:33.565Z,96614.88
2019-02-19T20:32:00.827Z,96612.42
2019-02-19T20:34:28.329Z,96619.23
2019-02-19T20:36:56.374Z,96623.80
2019-02-19T20:39:23.577Z,96627.06
2019-02-19T20:41:50.584Z,96619.78
2019-02-19T20:44:17.777Z,96623.71
2019-02-19T20:46:52.885Z,96624.78
2019-02-19T20:49:20.158Z,96628.45
2019-02-19T20:51:47.178Z,96620.02
2019-02-19T20:54:14.944Z,96619.16
2019-02-19T20:56:41.808Z,96625.17
2019-02-19T20:59:10.698Z,96621.77
2019-02-19T21:01:37.529Z,96630.14
2019-02-19T21:04:04.390Z,96629.66
2019-02-19T21:06:32.215Z,96635.64
2019-02-19T21:08:59.598Z,96632.22
2019-02-19T21:11:27.702Z,96630.66
2019-02-19T21:13:54.767Z,96629.73
2019-02-19T21:16:21.760Z,96636.80
2019-02-19T21:18:49.524Z,96639.78
2019-02-19T21:21:16.555Z,96634.03
2019-02-19T21:23:43.261Z,96636.89
2019-02-19T21:26:10.049Z,96640.70
2019-02-19T21:28:36.900Z,96641.41
2019-02-19T21:31:04.822Z,96641.10
2019-02-19T21:33:31.601Z,96634.31
2019-02-19T21:35:58.379Z,96641.30
2019-02-19T21:38:26.089Z,96635.34
2019-02-19T21:40:52.854Z,96639.94
2019-02-19T21:43:19.514Z,96641.59
2019-02-19T21:45:46.279Z,96650.70
2019-02-19T21:48:12.961Z,96650.05
2019-02-19T21:50:39.722Z,96649.84
2019-02-19T21:53:06.484Z,96656.09
2019-02-19T21:55:33.228Z,96656.88
2019-02-19T21:58:02.396Z,96655.30
2019-02-19T22:00:29.131Z,96656.84
2019-02-19T22:02:55.899Z,96668.44
2019-02-19T22:05:22.541Z,96674.09
2019-02-19T22:07:49.288Z,96667.93
2019-02-19T22:10:16.048Z,96669.06
2019-02-19T22:12:44.798Z,96672.25
2019-02-19T22:15:11.540Z,96674.09
2019-02-19T22:17:38.312Z,96669.46
2019-02-19T22:20:07.000Z,96673.58
2019-02-19T22:22:34.082Z,96665.70
2019-02-19T22:25:00.882Z,96664.48
2019-02-19T22:27:27.588Z,96660.98
2019-02-19T22:29:54.225Z,96666.72
2019-02-19T22:32:20.864Z,96664.23
2019-02-19T22:34:47.478Z,96669.65
2019-02-19T22:37:14.174Z,96670.04
2019-02-19T22:39:40.792Z,96670.86
2019-02-19T22:42:07.469Z,96659.18
2019-02-19T22:44:34.084Z,96666.86
2019-02-19T22:47:00.706Z,96666.75
2019-02-19T22:49:27.293Z,96667.45
2019-02-19T22:51:53.884Z,96667.14
2019-02-19T22:54:34.103Z,96672.66
2019-02-19T22:57:00.799Z,96672.86
2019-02-19T22:59:27.491Z,96662.93
2019-02-19T23:02:12.626Z,96669.09
2019-02-19T23:04:39.219Z,96676.55
2019-02-19T23:07:06.751Z,96672.55
2019-02-19T23:09:33.365Z,96672.45
2019-02-19T23:11:59.935Z,96670.69
2019-02-19T23:14:26.535Z,96679.08
2019-02-19T23:16:53.173Z,96677.11
2019-02-19T23:19:19.770Z,96680.80
2019-02-19T23:21:46.376Z,96685.30
2019-02-19T23:24:13.077Z,96689.80
2019-02-19T23:26:39.762Z,96690.82
2019-02-19T23:29:06.355Z,96683.53
2019-02-19T23:31:32.948Z,96691.20
2019-02-19T23:33:59.551Z,96693.05
2019-02-19T23:36:33.437Z,96692.55
2019-02-19T23:39:00.024Z,96695.94
2019-02-19T23:41:26.619Z,96696.95
2019-02-19T23:43:53.205Z,96692.95
2019-02-19T23:46:19.796Z,96699.11
2019-02-19T23:48:46.397Z,96706.59
2019-02-19T23:51:13.117Z,96709.77
2019-02-19T23:53:39.730Z,96700.64
2019-02-19T23:56:06.315Z,96705.27
2019-02-19T23:58:32.921Z,96711.20
